METAR Data
IDs: Format: Raw Decoded Include TAF

Data at: 1137 UTC 21 Jan 2020

METAR for:PAAK (Atka Arpt, AK, US)
Text:PAAK 211056Z AUTO 01007KT 10SM BKN055 M02/M08 A2961 RMK AO2 SLP027 T10171078 FZRANO
Temperature: -1.7°C ( 29°F)
Dewpoint: -7.8°C ( 18°F) [RH = 63%]
Pressure (altimeter):29.61 inches Hg (1002.8 mb) [Sea level pressure: 1002.7 mb]
Winds:from the N (10 degrees) at 8 MPH (7 knots; 3.6 m/s)
Visibility:10 or more sm (16+ km)
Ceiling:5500 feet AGL
Clouds: broken clouds at 5500 feet AGL
QC Flag:automated observation with no human augmentation
Text:PAAK 210956Z AUTO 31003KT 10SM SCT043 BKN060 M02/M06 A2960 RMK AO2 SNE40 SLP025 P0000 T10221061 FZRANO
Temperature: -2.2°C ( 28°F)
Dewpoint: -6.1°C ( 21°F) [RH = 75%]
Pressure (altimeter):29.60 inches Hg (1002.5 mb) [Sea level pressure: 1002.5 mb]
Winds:from the NW (310 degrees) at 3 MPH (3 knots; 1.5 m/s)
Visibility:10 or more sm (16+ km)
Ceiling:6000 feet AGL
Clouds: scattered clouds at 4300 feet AGL, broken clouds at 6000 feet AGL
QC Flag:automated observation with no human augmentation
Text:PAAK 210916Z AUTO 29006KT 7SM -SN SCT023 BKN031 OVC047 M01/M04 A2959 RMK AO2 P0000 FZRANO
Temperature: -1.0°C ( 30°F)
Dewpoint: -4.0°C ( 25°F) [RH = 80%]
Pressure (altimeter):29.59 inches Hg (1002.1 mb)
Winds:from the WNW (290 degrees) at 7 MPH (6 knots; 3.1 m/s)
Visibility: 7 sm ( 11 km)
Ceiling:3100 feet AGL
Clouds: scattered clouds at 2300 feet AGL, broken clouds at 3100 feet AGL, overcast cloud deck at 4700 feet AGL
Weather:-SN (light snow)
QC Flag:automated observation with no human augmentation
Text:PAAK 210903Z AUTO 33008KT 4SM -SN FEW013 BKN024 OVC044 M01/M04 A2959 RMK AO2 P0000 FZRANO
Temperature: -1.0°C ( 30°F)
Dewpoint: -4.0°C ( 25°F) [RH = 80%]
Pressure (altimeter):29.59 inches Hg (1002.1 mb)
Winds:from the NNW (330 degrees) at 9 MPH (8 knots; 4.1 m/s)
Visibility: 4 sm ( 6 km)
Ceiling:2400 feet AGL
Clouds: few clouds at 1300 feet AGL, broken clouds at 2400 feet AGL, overcast cloud deck at 4400 feet AGL
Weather:-SN (light snow)
QC Flag:automated observation with no human augmentation
Text:PAAK 210856Z AUTO 32008KT 5SM -SN FEW013 BKN035 OVC044 M01/M04 A2959 RMK AO2 UPB30E34SNE25B34 SLP021 P0000 60000 T10111044 400061072 53009 FZRANO
Temperature: -1.1°C ( 30°F)
Dewpoint: -4.4°C ( 24°F) [RH = 78%]
Pressure (altimeter):29.59 inches Hg (1002.1 mb) [Sea level pressure: 1002.1 mb]
Winds:from the NW (320 degrees) at 9 MPH (8 knots; 4.1 m/s)
Visibility: 5 sm ( 8 km)
Ceiling:3500 feet AGL
Clouds: few clouds at 1300 feet AGL, broken clouds at 3500 feet AGL, overcast cloud deck at 4400 feet AGL
Weather:-SN (light snow)
QC Flag:automated observation with no human augmentation
Text:PAAK 210756Z AUTO 35006KT 9SM -SN FEW024 SCT034 BKN046 M01/M06 A2958 RMK AO2 UPB07E12B34E39SNB12E34B39 SLP017 P0000 T10111056 FZRANO
Temperature: -1.1°C ( 30°F)
Dewpoint: -5.6°C ( 22°F) [RH = 71%]
Pressure (altimeter):29.58 inches Hg (1001.8 mb) [Sea level pressure: 1001.7 mb]
Winds:from the N (350 degrees) at 7 MPH (6 knots; 3.1 m/s)
Visibility: 9 sm ( 14 km)
Ceiling:4600 feet AGL
Clouds: few clouds at 2400 feet AGL, scattered clouds at 3400 feet AGL, broken clouds at 4600 feet AGL
Weather:-SN (light snow)
QC Flag:automated observation with no human augmentation
Text:PAAK 210728Z AUTO 31006KT 8SM -SN FEW009 BKN048 OVC060 M01/M06 A2957 RMK AO2 UPB07E12SNB12 P0000 FZRANO
Temperature: -1.0°C ( 30°F)
Dewpoint: -6.0°C ( 21°F) [RH = 69%]
Pressure (altimeter):29.57 inches Hg (1001.4 mb)
Winds:from the NW (310 degrees) at 7 MPH (6 knots; 3.1 m/s)
Visibility: 8 sm ( 13 km)
Ceiling:4800 feet AGL
Clouds: few clouds at 900 feet AGL, broken clouds at 4800 feet AGL, overcast cloud deck at 6000 feet AGL
Weather:-SN (light snow)
QC Flag:automated observation with no human augmentation
Text:PAAK 210656Z AUTO 36005KT 9SM FEW021 BKN041 OVC050 M01/M06 A2957 RMK AO2 SNE51 SLP013 P0000 T10061056 FZRANO
Temperature: -0.6°C ( 31°F)
Dewpoint: -5.6°C ( 22°F) [RH = 69%]
Pressure (altimeter):29.57 inches Hg (1001.4 mb) [Sea level pressure: 1001.3 mb]
Winds:from the N (360 degrees) at 6 MPH (5 knots; 2.6 m/s)
Visibility: 9 sm ( 14 km)
Ceiling:4100 feet AGL
Clouds: few clouds at 2100 feet AGL, broken clouds at 4100 feet AGL, overcast cloud deck at 5000 feet AGL
QC Flag:automated observation with no human augmentation
Text:PAAK 210652Z AUTO 02005KT 9SM FEW021 BKN034 OVC041 M01/M06 A2956 RMK AO2 SNE51 P0000 FZRANO
Temperature: -1.0°C ( 30°F)
Dewpoint: -6.0°C ( 21°F) [RH = 69%]
Pressure (altimeter):29.56 inches Hg (1001.1 mb)
Winds:from the NNE (20 degrees) at 6 MPH (5 knots; 2.6 m/s)
Visibility: 9 sm ( 14 km)
Ceiling:3400 feet AGL
Clouds: few clouds at 2100 feet AGL, broken clouds at 3400 feet AGL, overcast cloud deck at 4100 feet AGL
QC Flag:automated observation with no human augmentation
Text:PAAK 210641Z AUTO 02007KT 7SM -SN FEW021 BKN029 OVC042 00/M06 A2956 RMK AO2 P0000 FZRANO
Temperature: 0.0°C ( 32°F)
Dewpoint: -6.0°C ( 21°F) [RH = 64%]
Pressure (altimeter):29.56 inches Hg (1001.1 mb)
Winds:from the NNE (20 degrees) at 8 MPH (7 knots; 3.6 m/s)
Visibility: 7 sm ( 11 km)
Ceiling:2900 feet AGL
Clouds: few clouds at 2100 feet AGL, broken clouds at 2900 feet AGL, overcast cloud deck at 4200 feet AGL
Weather:-SN (light snow)
QC Flag:automated observation with no human augmentation
Text:PAAK 210607Z AUTO 00000KT 9SM -SN FEW026 BKN039 OVC060 M02/M04 A2955 RMK AO2 P0000 FZRANO
Temperature: -2.0°C ( 28°F)
Dewpoint: -4.0°C ( 25°F) [RH = 86%]
Pressure (altimeter):29.55 inches Hg (1000.8 mb)
Winds:calm
Visibility: 9 sm ( 14 km)
Ceiling:3900 feet AGL
Clouds: few clouds at 2600 feet AGL, broken clouds at 3900 feet AGL, overcast cloud deck at 6000 feet AGL
Weather:-SN (light snow)
QC Flag:automated observation with no human augmentation
Text:PAAK 210556Z AUTO 00000KT 10SM -SN FEW019 BKN026 OVC040 M02/M03 A2955 RMK AO2 UPB47E54SNE47B54 SLP008 P0000 60000 T10171033 10006 21017 51013 FZRANO
Temperature: -1.7°C ( 29°F)
Dewpoint: -3.3°C ( 26°F) [RH = 89%]
Pressure (altimeter):29.55 inches Hg (1000.8 mb) [Sea level pressure: 1000.8 mb]
Winds:calm
Visibility:10 or more sm (16+ km)
Ceiling:2600 feet AGL
Clouds: few clouds at 1900 feet AGL, broken clouds at 2600 feet AGL, overcast cloud deck at 4000 feet AGL
Weather:-SN (light snow)
QC Flag:automated observation with no human augmentation
Text:PAAK 210539Z AUTO 23003KT 3SM -SN BR SCT021 BKN028 OVC033 M02/M03 A2955 RMK AO2 P0000 FZRANO
Temperature: -2.0°C ( 28°F)
Dewpoint: -3.0°C ( 27°F) [RH = 93%]
Pressure (altimeter):29.55 inches Hg (1000.8 mb)
Winds:from the SW (230 degrees) at 3 MPH (3 knots; 1.5 m/s)
Visibility: 3 sm ( 5 km)
Ceiling:2800 feet AGL
Clouds: scattered clouds at 2100 feet AGL, broken clouds at 2800 feet AGL, overcast cloud deck at 3300 feet AGL
Weather:-SN BR (light snow, mist)
QC Flag:automated observation with no human augmentation
Text:PAAK 210511Z AUTO 36005KT 6SM -SN FEW017 BKN027 OVC044 M01/M04 A2954 RMK AO2 P0000 FZRANO
Temperature: -1.0°C ( 30°F)
Dewpoint: -4.0°C ( 25°F) [RH = 80%]
Pressure (altimeter):29.54 inches Hg (1000.4 mb)
Winds:from the N (360 degrees) at 6 MPH (5 knots; 2.6 m/s)
Visibility: 6 sm ( 10 km)
Ceiling:2700 feet AGL
Clouds: few clouds at 1700 feet AGL, broken clouds at 2700 feet AGL, overcast cloud deck at 4400 feet AGL
Weather:-SN (light snow)
QC Flag:automated observation with no human augmentation
Text:PAAK 210456Z AUTO 34005KT 8SM -SN FEW021 BKN032 OVC043 M01/M04 A2954 RMK AO2 SLP005 P0000 T10111044 FZRANO
Temperature: -1.1°C ( 30°F)
Dewpoint: -4.4°C ( 24°F) [RH = 78%]
Pressure (altimeter):29.54 inches Hg (1000.4 mb) [Sea level pressure: 1000.5 mb]
Winds:from the NNW (340 degrees) at 6 MPH (5 knots; 2.6 m/s)
Visibility: 8 sm ( 13 km)
Ceiling:3200 feet AGL
Clouds: few clouds at 2100 feet AGL, broken clouds at 3200 feet AGL, overcast cloud deck at 4300 feet AGL
Weather:-SN (light snow)
QC Flag:automated observation with no human augmentation
Text:PAAK 210448Z AUTO 28003KT 4SM -SN BKN025 OVC032 M01/M04 A2953 RMK AO2 P0000 FZRANO
Temperature: -1.0°C ( 30°F)
Dewpoint: -4.0°C ( 25°F) [RH = 80%]
Pressure (altimeter):29.53 inches Hg (1000.1 mb)
Winds:from the W (280 degrees) at 3 MPH (3 knots; 1.5 m/s)
Visibility: 4 sm ( 6 km)
Ceiling:2500 feet AGL
Clouds: broken clouds at 2500 feet AGL, overcast cloud deck at 3200 feet AGL
Weather:-SN (light snow)
QC Flag:automated observation with no human augmentation
Text:PAAK 210438Z AUTO VRB04KT 2 1/2SM -SN FEW017 BKN025 OVC032 M01/M04 A2953 RMK AO2 VIS 1 3/4V5 P0000 FZRANO
Temperature: -1.0°C ( 30°F)
Dewpoint: -4.0°C ( 25°F) [RH = 80%]
Pressure (altimeter):29.53 inches Hg (1000.1 mb)
Winds:variable direction winds at 5 MPH (4 knots; 2.1 m/s)
Visibility: 2.50 sm ( 4.02 km)
Ceiling:2500 feet AGL
Clouds: few clouds at 1700 feet AGL, broken clouds at 2500 feet AGL, overcast cloud deck at 3200 feet AGL
Weather:-SN (light snow)
QC Flag:automated observation with no human augmentation
Text:PAAK 210428Z AUTO 23004KT 6SM -SN BR FEW017 SCT023 OVC030 M02/M04 A2953 RMK AO2 P0000 FZRANO
Temperature: -2.0°C ( 28°F)
Dewpoint: -4.0°C ( 25°F) [RH = 86%]
Pressure (altimeter):29.53 inches Hg (1000.1 mb)
Winds:from the SW (230 degrees) at 5 MPH (4 knots; 2.1 m/s)
Visibility: 6 sm ( 10 km)
Ceiling:3000 feet AGL
Clouds: few clouds at 1700 feet AGL, scattered clouds at 2300 feet AGL, overcast cloud deck at 3000 feet AGL
Weather:-SN BR (light snow, mist)
QC Flag:automated observation with no human augmentation
Text:PAAK 210420Z AUTO 00000KT 3SM -SN BR FEW015 BKN023 OVC035 M02/M04 A2953 RMK AO2 P0000 FZRANO
Temperature: -2.0°C ( 28°F)
Dewpoint: -4.0°C ( 25°F) [RH = 86%]
Pressure (altimeter):29.53 inches Hg (1000.1 mb)
Winds:calm
Visibility: 3 sm ( 5 km)
Ceiling:2300 feet AGL
Clouds: few clouds at 1500 feet AGL, broken clouds at 2300 feet AGL, overcast cloud deck at 3500 feet AGL
Weather:-SN BR (light snow, mist)
QC Flag:automated observation with no human augmentation
Text:PAAK 210404Z AUTO 00000KT 1 1/4SM -SN FEW015 BKN027 OVC040 M01/M04 A2953 RMK AO2 P0000 FZRANO
Temperature: -1.0°C ( 30°F)
Dewpoint: -4.0°C ( 25°F) [RH = 80%]
Pressure (altimeter):29.53 inches Hg (1000.1 mb)
Winds:calm
Visibility: 1.25 sm ( 2.01 km)
Ceiling:2700 feet AGL
Clouds: few clouds at 1500 feet AGL, broken clouds at 2700 feet AGL, overcast cloud deck at 4000 feet AGL
Weather:-SN (light snow)
QC Flag:automated observation with no human augmentation
Text:PAAK 210356Z AUTO 34006KT 1 3/4SM -SN FEW015 BKN033 OVC042 M01/M04 A2953 RMK AO2 SNB30 SLP002 P0000 T10111039 FZRANO
Temperature: -1.1°C ( 30°F)
Dewpoint: -3.9°C ( 25°F) [RH = 81%]
Pressure (altimeter):29.53 inches Hg (1000.1 mb) [Sea level pressure: 1000.2 mb]
Winds:from the NNW (340 degrees) at 7 MPH (6 knots; 3.1 m/s)
Visibility: 1.75 sm ( 2.82 km)
Ceiling:3300 feet AGL
Clouds: few clouds at 1500 feet AGL, broken clouds at 3300 feet AGL, overcast cloud deck at 4200 feet AGL
Weather:-SN (light snow)
QC Flag:automated observation with no human augmentation
Text:PAAK 210256Z AUTO 36007KT 10SM SCT055 M01/M07 A2951 RMK AO2 SLP995 60000 T10061067 55004 FZRANO
Temperature: -0.6°C ( 31°F)
Dewpoint: -6.7°C ( 20°F) [RH = 63%]
Pressure (altimeter):29.51 inches Hg ( 999.4 mb) [Sea level pressure: 999.5 mb]
Winds:from the N (360 degrees) at 8 MPH (7 knots; 3.6 m/s)
Visibility:10 or more sm (16+ km)
Ceiling:at least 12,000 feet AGL
Clouds: scattered clouds at 5500 feet AGL
QC Flag:automated observation with no human augmentation
Text:PAAK 210156Z AUTO 00000KT 10SM OVC055 M01/M05 A2951 RMK AO2 UPB29E45 SLP994 P0000 T10061050 FZRANO
Temperature: -0.6°C ( 31°F)
Dewpoint: -5.0°C ( 23°F) [RH = 72%]
Pressure (altimeter):29.51 inches Hg ( 999.4 mb) [Sea level pressure: 999.4 mb]
Winds:calm
Visibility:10 or more sm (16+ km)
Ceiling:5500 feet AGL
Clouds: overcast cloud deck at 5500 feet AGL
QC Flag:automated observation with no human augmentation
Text:PAAK 210056Z AUTO 34003KT 10SM SCT042 OVC055 00/M06 A2951 RMK AO2 SLP995 T00001056 FZRANO
Temperature: 0.0°C ( 32°F)
Dewpoint: -5.6°C ( 22°F) [RH = 66%]
Pressure (altimeter):29.51 inches Hg ( 999.4 mb) [Sea level pressure: 999.5 mb]
Winds:from the NNW (340 degrees) at 3 MPH (3 knots; 1.5 m/s)
Visibility:10 or more sm (16+ km)
Ceiling:5500 feet AGL
Clouds: scattered clouds at 4200 feet AGL, overcast cloud deck at 5500 feet AGL
QC Flag:automated observation with no human augmentation
Text:PAAK 202356Z AUTO 27005KT 10SM FEW041 BKN065 M01/M05 A2952 RMK AO2 SLP000 T10061050 11006 21061 58005 FZRANO
Temperature: -0.6°C ( 31°F)
Dewpoint: -5.0°C ( 23°F) [RH = 72%]
Pressure (altimeter):29.52 inches Hg ( 999.7 mb) [Sea level pressure: 1000.0 mb]
Winds:from the W (270 degrees) at 6 MPH (5 knots; 2.6 m/s)
Visibility:10 or more sm (16+ km)
Ceiling:6500 feet AGL
Clouds: few clouds at 4100 feet AGL, broken clouds at 6500 feet AGL
QC Flag:automated observation with no human augmentation